sensor_id;sensor_type;location;lat;lon;timestamp;P1;durP1;ratioP1;P2;durP2;ratioP2
12445;SDS011;6287;50.984;7.022;2023-04-21T00:01:22;10.00;;;7.13;;
12445;SDS011;6287;50.984;7.022;2023-04-21T00:03:47;10.23;;;7.67;;
12445;SDS011;6287;50.984;7.022;2023-04-21T00:06:16;9.43;;;7.30;;
12445;SDS011;6287;50.984;7.022;2023-04-21T00:08:46;12.37;;;8.07;;
12445;SDS011;6287;50.984;7.022;2023-04-21T00:11:19;9.23;;;7.53;;
12445;SDS011;6287;50.984;7.022;2023-04-21T00:13:46;13.43;;;8.53;;
12445;SDS011;6287;50.984;7.022;2023-04-21T00:16:12;10.90;;;7.90;;
12445;SDS011;6287;50.984;7.022;2023-04-21T00:18:37;12.87;;;8.37;;
12445;SDS011;6287;50.984;7.022;2023-04-21T00:21:03;11.30;;;8.10;;
12445;SDS011;6287;50.984;7.022;2023-04-21T00:23:31;10.93;;;8.13;;
12445;SDS011;6287;50.984;7.022;2023-04-21T00:25:56;13.33;;;8.20;;
12445;SDS011;6287;50.984;7.022;2023-04-21T00:28:25;11.13;;;7.57;;
12445;SDS011;6287;50.984;7.022;2023-04-21T00:30:53;12.73;;;8.57;;
12445;SDS011;6287;50.984;7.022;2023-04-21T00:33:21;13.07;;;8.77;;
12445;SDS011;6287;50.984;7.022;2023-04-21T00:35:47;12.80;;;8.23;;
12445;SDS011;6287;50.984;7.022;2023-04-21T00:38:12;11.07;;;7.47;;
12445;SDS011;6287;50.984;7.022;2023-04-21T00:40:40;11.83;;;9.03;;
12445;SDS011;6287;50.984;7.022;2023-04-21T00:43:08;12.00;;;8.53;;
12445;SDS011;6287;50.984;7.022;2023-04-21T00:45:38;12.10;;;7.80;;
12445;SDS011;6287;50.984;7.022;2023-04-21T00:48:09;12.20;;;8.63;;
12445;SDS011;6287;50.984;7.022;2023-04-21T00:50:35;11.23;;;8.10;;
12445;SDS011;6287;50.984;7.022;2023-04-21T00:53:03;14.53;;;7.97;;
12445;SDS011;6287;50.984;7.022;2023-04-21T00:55:29;10.83;;;8.43;;
12445;SDS011;6287;50.984;7.022;2023-04-21T00:57:55;9.40;;;8.10;;
12445;SDS011;6287;50.984;7.022;2023-04-21T01:00:24;11.57;;;8.17;;
12445;SDS011;6287;50.984;7.022;2023-04-21T01:02:49;10.90;;;8.47;;
12445;SDS011;6287;50.984;7.022;2023-04-21T01:05:19;12.97;;;8.67;;
12445;SDS011;6287;50.984;7.022;2023-04-21T01:07:47;13.67;;;9.27;;
12445;SDS011;6287;50.984;7.022;2023-04-21T01:10:13;11.80;;;9.27;;
12445;SDS011;6287;50.984;7.022;2023-04-21T01:12:46;11.53;;;8.57;;
12445;SDS011;6287;50.984;7.022;2023-04-21T01:15:13;12.13;;;8.17;;
12445;SDS011;6287;50.984;7.022;2023-04-21T01:17:42;14.67;;;9.13;;
12445;SDS011;6287;50.984;7.022;2023-04-21T01:20:12;12.97;;;9.43;;
12445;SDS011;6287;50.984;7.022;2023-04-21T01:22:39;13.20;;;8.67;;
12445;SDS011;6287;50.984;7.022;2023-04-21T01:25:06;11.40;;;8.43;;
12445;SDS011;6287;50.984;7.022;2023-04-21T01:27:35;13.47;;;9.07;;
12445;SDS011;6287;50.984;7.022;2023-04-21T01:30:08;16.37;;;9.90;;
12445;SDS011;6287;50.984;7.022;2023-04-21T01:32:34;14.73;;;9.23;;
12445;SDS011;6287;50.984;7.022;2023-04-21T01:35:00;16.27;;;9.73;;
12445;SDS011;6287;50.984;7.022;2023-04-21T01:37:27;14.27;;;9.63;;
12445;SDS011;6287;50.984;7.022;2023-04-21T01:39:55;13.00;;;8.90;;
12445;SDS011;6287;50.984;7.022;2023-04-21T01:42:24;14.77;;;9.03;;
12445;SDS011;6287;50.984;7.022;2023-04-21T01:44:51;13.07;;;9.20;;
12445;SDS011;6287;50.984;7.022;2023-04-21T01:47:20;13.07;;;8.63;;
12445;SDS011;6287;50.984;7.022;2023-04-21T01:49:46;13.17;;;9.37;;
12445;SDS011;6287;50.984;7.022;2023-04-21T01:52:14;12.33;;;9.47;;
12445;SDS011;6287;50.984;7.022;2023-04-21T01:54:45;14.80;;;8.70;;
12445;SDS011;6287;50.984;7.022;2023-04-21T01:57:11;13.60;;;9.40;;
12445;SDS011;6287;50.984;7.022;2023-04-21T01:59:41;18.70;;;9.80;;
12445;SDS011;6287;50.984;7.022;2023-04-21T02:02:10;16.40;;;10.10;;
12445;SDS011;6287;50.984;7.022;2023-04-21T02:04:35;12.20;;;8.67;;
12445;SDS011;6287;50.984;7.022;2023-04-21T02:07:03;15.47;;;9.90;;
12445;SDS011;6287;50.984;7.022;2023-04-21T02:09:29;15.93;;;10.17;;
12445;SDS011;6287;50.984;7.022;2023-04-21T02:11:55;14.00;;;8.90;;
12445;SDS011;6287;50.984;7.022;2023-04-21T02:14:24;18.37;;;10.07;;
12445;SDS011;6287;50.984;7.022;2023-04-21T02:16:50;17.53;;;9.20;;
12445;SDS011;6287;50.984;7.022;2023-04-21T02:19:20;13.77;;;9.37;;
12445;SDS011;6287;50.984;7.022;2023-04-21T02:21:48;14.93;;;9.67;;
12445;SDS011;6287;50.984;7.022;2023-04-21T02:24:17;16.57;;;9.70;;
12445;SDS011;6287;50.984;7.022;2023-04-21T02:26:43;15.27;;;9.90;;
12445;SDS011;6287;50.984;7.022;2023-04-21T02:29:10;16.43;;;10.03;;
12445;SDS011;6287;50.984;7.022;2023-04-21T02:31:38;13.27;;;9.07;;
12445;SDS011;6287;50.984;7.022;2023-04-21T02:34:04;14.47;;;9.67;;
12445;SDS011;6287;50.984;7.022;2023-04-21T02:36:30;15.80;;;9.77;;
12445;SDS011;6287;50.984;7.022;2023-04-21T02:38:56;13.70;;;9.83;;
12445;SDS011;6287;50.984;7.022;2023-04-21T02:41:24;15.90;;;9.70;;
12445;SDS011;6287;50.984;7.022;2023-04-21T02:43:49;14.50;;;9.53;;
12445;SDS011;6287;50.984;7.022;2023-04-21T02:46:17;16.83;;;10.33;;
12445;SDS011;6287;50.984;7.022;2023-04-21T02:48:43;14.43;;;9.60;;
12445;SDS011;6287;50.984;7.022;2023-04-21T02:51:12;15.27;;;9.80;;
12445;SDS011;6287;50.984;7.022;2023-04-21T02:53:38;16.77;;;10.10;;
12445;SDS011;6287;50.984;7.022;2023-04-21T02:56:07;14.70;;;10.10;;
12445;SDS011;6287;50.984;7.022;2023-04-21T02:58:35;14.63;;;9.57;;
12445;SDS011;6287;50.984;7.022;2023-04-21T03:01:03;14.70;;;10.07;;
12445;SDS011;6287;50.984;7.022;2023-04-21T03:03:29;13.90;;;9.87;;
12445;SDS011;6287;50.984;7.022;2023-04-21T03:06:00;17.10;;;10.60;;
12445;SDS011;6287;50.984;7.022;2023-04-21T03:08:29;16.63;;;10.83;;
12445;SDS011;6287;50.984;7.022;2023-04-21T03:10:57;15.07;;;9.83;;
12445;SDS011;6287;50.984;7.022;2023-04-21T03:13:25;17.10;;;10.47;;
12445;SDS011;6287;50.984;7.022;2023-04-21T03:15:53;16.43;;;9.57;;
12445;SDS011;6287;50.984;7.022;2023-04-21T03:18:24;15.57;;;9.37;;
12445;SDS011;6287;50.984;7.022;2023-04-21T03:20:52;17.03;;;10.90;;
12445;SDS011;6287;50.984;7.022;2023-04-21T03:23:23;17.43;;;10.60;;
12445;SDS011;6287;50.984;7.022;2023-04-21T03:25:52;12.70;;;8.53;;
12445;SDS011;6287;50.984;7.022;2023-04-21T03:28:19;12.80;;;9.60;;
12445;SDS011;6287;50.984;7.022;2023-04-21T03:30:45;14.40;;;9.97;;
12445;SDS011;6287;50.984;7.022;2023-04-21T03:33:13;13.73;;;9.10;;
12445;SDS011;6287;50.984;7.022;2023-04-21T03:35:40;14.40;;;9.50;;
12445;SDS011;6287;50.984;7.022;2023-04-21T03:38:08;13.17;;;9.13;;
12445;SDS011;6287;50.984;7.022;2023-04-21T03:40:38;14.20;;;9.57;;
12445;SDS011;6287;50.984;7.022;2023-04-21T03:43:04;14.37;;;9.90;;
12445;SDS011;6287;50.984;7.022;2023-04-21T03:45:30;13.07;;;8.83;;
12445;SDS011;6287;50.984;7.022;2023-04-21T03:47:58;17.43;;;10.23;;
12445;SDS011;6287;50.984;7.022;2023-04-21T03:50:26;13.57;;;9.23;;
12445;SDS011;6287;50.984;7.022;2023-04-21T03:52:53;16.43;;;10.00;;
12445;SDS011;6287;50.984;7.022;2023-04-21T03:55:19;14.83;;;9.43;;
12445;SDS011;6287;50.984;7.022;2023-04-21T03:57:45;13.73;;;9.07;;
12445;SDS011;6287;50.984;7.022;2023-04-21T04:00:10;15.13;;;10.33;;
12445;SDS011;6287;50.984;7.022;2023-04-21T04:02:37;13.47;;;9.00;;
12445;SDS011;6287;50.984;7.022;2023-04-21T04:05:05;13.90;;;9.40;;
12445;SDS011;6287;50.984;7.022;2023-04-21T04:07:34;14.57;;;9.53;;
12445;SDS011;6287;50.984;7.022;2023-04-21T04:10:00;15.00;;;9.20;;
12445;SDS011;6287;50.984;7.022;2023-04-21T04:12:28;14.03;;;9.30;;
12445;SDS011;6287;50.984;7.022;2023-04-21T04:14:54;16.70;;;10.27;;
12445;SDS011;6287;50.984;7.022;2023-04-21T04:17:24;17.40;;;10.13;;
12445;SDS011;6287;50.984;7.022;2023-04-21T04:19:52;15.90;;;10.03;;
12445;SDS011;6287;50.984;7.022;2023-04-21T04:22:17;16.13;;;9.87;;
12445;SDS011;6287;50.984;7.022;2023-04-21T04:24:45;16.70;;;10.10;;
12445;SDS011;6287;50.984;7.022;2023-04-21T04:27:11;15.73;;;9.43;;
12445;SDS011;6287;50.984;7.022;2023-04-21T04:29:40;18.20;;;10.43;;
12445;SDS011;6287;50.984;7.022;2023-04-21T04:32:12;17.17;;;10.87;;
12445;SDS011;6287;50.984;7.022;2023-04-21T04:34:39;15.37;;;9.83;;
12445;SDS011;6287;50.984;7.022;2023-04-21T04:37:04;18.40;;;10.90;;
12445;SDS011;6287;50.984;7.022;2023-04-21T04:39:30;15.17;;;10.07;;
12445;SDS011;6287;50.984;7.022;2023-04-21T04:41:56;17.07;;;10.93;;
12445;SDS011;6287;50.984;7.022;2023-04-21T04:44:22;15.67;;;10.47;;
12445;SDS011;6287;50.984;7.022;2023-04-21T04:46:50;19.23;;;11.37;;
12445;SDS011;6287;50.984;7.022;2023-04-21T04:49:21;14.10;;;9.20;;
12445;SDS011;6287;50.984;7.022;2023-04-21T04:51:48;18.50;;;11.03;;
12445;SDS011;6287;50.984;7.022;2023-04-21T04:54:14;17.50;;;10.57;;
12445;SDS011;6287;50.984;7.022;2023-04-21T04:56:40;14.40;;;9.57;;
12445;SDS011;6287;50.984;7.022;2023-04-21T04:59:08;16.90;;;10.50;;
12445;SDS011;6287;50.984;7.022;2023-04-21T05:01:33;16.50;;;9.90;;
12445;SDS011;6287;50.984;7.022;2023-04-21T05:03:59;17.77;;;10.80;;
12445;SDS011;6287;50.984;7.022;2023-04-21T05:06:27;16.10;;;9.37;;
12445;SDS011;6287;50.984;7.022;2023-04-21T05:08:52;16.10;;;10.10;;
12445;SDS011;6287;50.984;7.022;2023-04-21T05:11:18;17.70;;;10.80;;
12445;SDS011;6287;50.984;7.022;2023-04-21T05:13:44;17.40;;;9.83;;
12445;SDS011;6287;50.984;7.022;2023-04-21T05:16:10;17.07;;;10.87;;
12445;SDS011;6287;50.984;7.022;2023-04-21T05:18:37;17.20;;;10.60;;
12445;SDS011;6287;50.984;7.022;2023-04-21T05:21:03;17.50;;;10.60;;
12445;SDS011;6287;50.984;7.022;2023-04-21T05:23:33;17.47;;;10.83;;
12445;SDS011;6287;50.984;7.022;2023-04-21T05:26:01;18.33;;;11.13;;
12445;SDS011;6287;50.984;7.022;2023-04-21T05:28:27;17.73;;;11.17;;
12445;SDS011;6287;50.984;7.022;2023-04-21T05:30:54;17.13;;;10.23;;
12445;SDS011;6287;50.984;7.022;2023-04-21T05:33:21;14.93;;;10.57;;
12445;SDS011;6287;50.984;7.022;2023-04-21T05:35:52;15.17;;;10.30;;
12445;SDS011;6287;50.984;7.022;2023-04-21T05:38:18;16.57;;;10.73;;
12445;SDS011;6287;50.984;7.022;2023-04-21T05:40:43;15.67;;;10.53;;
12445;SDS011;6287;50.984;7.022;2023-04-21T05:43:09;18.90;;;10.87;;
12445;SDS011;6287;50.984;7.022;2023-04-21T05:45:37;17.00;;;10.60;;
12445;SDS011;6287;50.984;7.022;2023-04-21T05:48:05;17.10;;;10.90;;
12445;SDS011;6287;50.984;7.022;2023-04-21T05:50:31;19.70;;;10.33;;
12445;SDS011;6287;50.984;7.022;2023-04-21T05:52:59;18.93;;;11.33;;
12445;SDS011;6287;50.984;7.022;2023-04-21T05:55:25;16.53;;;10.17;;
12445;SDS011;6287;50.984;7.022;2023-04-21T05:57:53;17.47;;;11.07;;
12445;SDS011;6287;50.984;7.022;2023-04-21T06:00:19;18.67;;;11.53;;
12445;SDS011;6287;50.984;7.022;2023-04-21T06:02:47;18.40;;;10.97;;
12445;SDS011;6287;50.984;7.022;2023-04-21T06:05:13;19.17;;;11.63;;
12445;SDS011;6287;50.984;7.022;2023-04-21T06:07:38;16.80;;;11.10;;
12445;SDS011;6287;50.984;7.022;2023-04-21T06:10:06;17.37;;;11.23;;
12445;SDS011;6287;50.984;7.022;2023-04-21T06:12:32;17.30;;;11.00;;
12445;SDS011;6287;50.984;7.022;2023-04-21T06:15:01;19.03;;;12.13;;
12445;SDS011;6287;50.984;7.022;2023-04-21T06:17:30;17.80;;;11.27;;
12445;SDS011;6287;50.984;7.022;2023-04-21T06:19:58;19.17;;;11.83;;
12445;SDS011;6287;50.984;7.022;2023-04-21T06:22:26;18.77;;;11.17;;
12445;SDS011;6287;50.984;7.022;2023-04-21T06:24:57;21.97;;;12.87;;
12445;SDS011;6287;50.984;7.022;2023-04-21T06:27:27;23.70;;;13.33;;
12445;SDS011;6287;50.984;7.022;2023-04-21T06:29:55;20.77;;;12.90;;
12445;SDS011;6287;50.984;7.022;2023-04-21T06:32:25;21.47;;;13.00;;
12445;SDS011;6287;50.984;7.022;2023-04-21T06:34:51;21.50;;;11.93;;
12445;SDS011;6287;50.984;7.022;2023-04-21T06:37:16;22.03;;;13.50;;
12445;SDS011;6287;50.984;7.022;2023-04-21T06:39:42;22.83;;;13.77;;
12445;SDS011;6287;50.984;7.022;2023-04-21T06:42:12;20.47;;;12.87;;
12445;SDS011;6287;50.984;7.022;2023-04-21T06:44:42;19.10;;;11.50;;
12445;SDS011;6287;50.984;7.022;2023-04-21T06:47:08;21.40;;;13.70;;
12445;SDS011;6287;50.984;7.022;2023-04-21T06:49:36;19.13;;;12.47;;
12445;SDS011;6287;50.984;7.022;2023-04-21T06:52:03;19.13;;;12.27;;
12445;SDS011;6287;50.984;7.022;2023-04-21T06:54:33;20.10;;;11.30;;
12445;SDS011;6287;50.984;7.022;2023-04-21T06:56:59;18.37;;;11.67;;
12445;SDS011;6287;50.984;7.022;2023-04-21T06:59:24;18.50;;;11.47;;
12445;SDS011;6287;50.984;7.022;2023-04-21T07:01:52;18.00;;;11.10;;
12445;SDS011;6287;50.984;7.022;2023-04-21T07:04:18;21.07;;;12.43;;
12445;SDS011;6287;50.984;7.022;2023-04-21T07:06:44;18.67;;;12.33;;
12445;SDS011;6287;50.984;7.022;2023-04-21T07:09:12;19.20;;;12.13;;
12445;SDS011;6287;50.984;7.022;2023-04-21T07:11:40;18.60;;;12.27;;
12445;SDS011;6287;50.984;7.022;2023-04-21T07:14:06;20.17;;;12.93;;
12445;SDS011;6287;50.984;7.022;2023-04-21T07:16:37;16.43;;;10.57;;
12445;SDS011;6287;50.984;7.022;2023-04-21T07:19:03;19.27;;;12.30;;
12445;SDS011;6287;50.984;7.022;2023-04-21T07:21:31;18.80;;;11.27;;
12445;SDS011;6287;50.984;7.022;2023-04-21T07:24:00;18.73;;;11.47;;
12445;SDS011;6287;50.984;7.022;2023-04-21T07:26:26;18.30;;;11.43;;
12445;SDS011;6287;50.984;7.022;2023-04-21T07:28:55;15.80;;;10.27;;
12445;SDS011;6287;50.984;7.022;2023-04-21T07:31:26;19.37;;;11.17;;
12445;SDS011;6287;50.984;7.022;2023-04-21T07:33:52;19.97;;;11.57;;
12445;SDS011;6287;50.984;7.022;2023-04-21T07:36:19;16.27;;;10.67;;
12445;SDS011;6287;50.984;7.022;2023-04-21T07:38:51;13.07;;;9.57;;
12445;SDS011;6287;50.984;7.022;2023-04-21T07:41:18;13.93;;;10.10;;
12445;SDS011;6287;50.984;7.022;2023-04-21T07:43:44;16.17;;;10.70;;
12445;SDS011;6287;50.984;7.022;2023-04-21T07:46:10;18.17;;;11.67;;
12445;SDS011;6287;50.984;7.022;2023-04-21T07:48:37;15.80;;;10.27;;
12445;SDS011;6287;50.984;7.022;2023-04-21T07:51:03;16.23;;;10.43;;
12445;SDS011;6287;50.984;7.022;2023-04-21T07:53:31;17.57;;;10.63;;
12445;SDS011;6287;50.984;7.022;2023-04-21T07:55:59;18.17;;;11.53;;
12445;SDS011;6287;50.984;7.022;2023-04-21T07:58:25;15.53;;;10.47;;
12445;SDS011;6287;50.984;7.022;2023-04-21T08:00:50;18.90;;;11.33;;
12445;SDS011;6287;50.984;7.022;2023-04-21T08:03:16;18.30;;;11.20;;
12445;SDS011;6287;50.984;7.022;2023-04-21T08:05:46;17.40;;;10.60;;
12445;SDS011;6287;50.984;7.022;2023-04-21T08:08:14;16.40;;;10.17;;
12445;SDS011;6287;50.984;7.022;2023-04-21T08:10:44;15.83;;;9.67;;
12445;SDS011;6287;50.984;7.022;2023-04-21T08:13:12;17.73;;;10.53;;
12445;SDS011;6287;50.984;7.022;2023-04-21T08:15:40;16.03;;;9.90;;
12445;SDS011;6287;50.984;7.022;2023-04-21T08:18:06;16.53;;;10.80;;
12445;SDS011;6287;50.984;7.022;2023-04-21T08:20:32;16.50;;;10.63;;
12445;SDS011;6287;50.984;7.022;2023-04-21T08:22:58;14.57;;;10.50;;
12445;SDS011;6287;50.984;7.022;2023-04-21T08:25:26;15.93;;;10.73;;
12445;SDS011;6287;50.984;7.022;2023-04-21T08:27:51;15.97;;;11.00;;
12445;SDS011;6287;50.984;7.022;2023-04-21T08:30:17;15.43;;;9.87;;
12445;SDS011;6287;50.984;7.022;2023-04-21T08:32:43;17.10;;;10.83;;
12445;SDS011;6287;50.984;7.022;2023-04-21T08:35:09;18.70;;;10.27;;
12445;SDS011;6287;50.984;7.022;2023-04-21T08:37:37;16.13;;;11.17;;
12445;SDS011;6287;50.984;7.022;2023-04-21T08:40:05;19.17;;;11.57;;
12445;SDS011;6287;50.984;7.022;2023-04-21T08:42:32;17.57;;;10.30;;
12445;SDS011;6287;50.984;7.022;2023-04-21T08:44:58;18.37;;;11.37;;
12445;SDS011;6287;50.984;7.022;2023-04-21T08:47:26;16.27;;;11.07;;
12445;SDS011;6287;50.984;7.022;2023-04-21T08:49:53;16.07;;;10.53;;
12445;SDS011;6287;50.984;7.022;2023-04-21T08:52:22;16.17;;;10.87;;
12445;SDS011;6287;50.984;7.022;2023-04-21T08:54:48;16.63;;;10.33;;
12445;SDS011;6287;50.984;7.022;2023-04-21T08:57:20;15.73;;;10.33;;
12445;SDS011;6287;50.984;7.022;2023-04-21T08:59:47;18.03;;;11.03;;
12445;SDS011;6287;50.984;7.022;2023-04-21T09:02:19;15.30;;;10.00;;
12445;SDS011;6287;50.984;7.022;2023-04-21T09:04:48;15.17;;;10.13;;
12445;SDS011;6287;50.984;7.022;2023-04-21T09:07:31;13.53;;;9.43;;
12445;SDS011;6287;50.984;7.022;2023-04-21T09:10:03;16.17;;;10.50;;
12445;SDS011;6287;50.984;7.022;2023-04-21T09:12:29;16.50;;;10.13;;
12445;SDS011;6287;50.984;7.022;2023-04-21T09:15:03;14.13;;;9.50;;
12445;SDS011;6287;50.984;7.022;2023-04-21T09:17:34;16.53;;;10.17;;
12445;SDS011;6287;50.984;7.022;2023-04-21T09:20:16;14.17;;;9.53;;
12445;SDS011;6287;50.984;7.022;2023-04-21T09:22:43;14.27;;;10.10;;
12445;SDS011;6287;50.984;7.022;2023-04-21T09:25:09;15.33;;;10.30;;
12445;SDS011;6287;50.984;7.022;2023-04-21T09:27:40;15.47;;;9.83;;
12445;SDS011;6287;50.984;7.022;2023-04-21T09:30:09;15.17;;;10.10;;
12445;SDS011;6287;50.984;7.022;2023-04-21T09:32:36;14.80;;;9.17;;
12445;SDS011;6287;50.984;7.022;2023-04-21T09:35:07;14.70;;;10.13;;
12445;SDS011;6287;50.984;7.022;2023-04-21T09:37:37;15.47;;;10.53;;
12445;SDS011;6287;50.984;7.022;2023-04-21T09:40:04;14.93;;;10.13;;
12445;SDS011;6287;50.984;7.022;2023-04-21T09:42:32;17.40;;;10.20;;
12445;SDS011;6287;50.984;7.022;2023-04-21T09:45:03;15.70;;;10.13;;
12445;SDS011;6287;50.984;7.022;2023-04-21T09:47:29;14.73;;;10.80;;
12445;SDS011;6287;50.984;7.022;2023-04-21T09:49:57;21.43;;;11.67;;
12445;SDS011;6287;50.984;7.022;2023-04-21T09:52:25;16.23;;;10.53;;
12445;SDS011;6287;50.984;7.022;2023-04-21T09:54:57;15.40;;;10.20;;
12445;SDS011;6287;50.984;7.022;2023-04-21T09:57:30;14.83;;;10.23;;
12445;SDS011;6287;50.984;7.022;2023-04-21T09:59:59;14.37;;;10.07;;
12445;SDS011;6287;50.984;7.022;2023-04-21T10:02:29;16.85;;;10.10;;
12445;SDS011;6287;50.984;7.022;2023-04-21T10:05:00;13.98;;;9.38;;
12445;SDS011;6287;50.984;7.022;2023-04-21T10:07:26;17.55;;;9.55;;
12445;SDS011;6287;50.984;7.022;2023-04-21T10:09:56;12.65;;;9.05;;
12445;SDS011;6287;50.984;7.022;2023-04-21T10:12:23;17.30;;;10.43;;
12445;SDS011;6287;50.984;7.022;2023-04-21T10:14:53;15.27;;;9.85;;
12445;SDS011;6287;50.984;7.022;2023-04-21T10:17:23;15.50;;;10.27;;
12445;SDS011;6287;50.984;7.022;2023-04-21T10:19:51;14.02;;;8.95;;
12445;SDS011;6287;50.984;7.022;2023-04-21T10:24:59;13.45;;;8.65;;
12445;SDS011;6287;50.984;7.022;2023-04-21T10:27:30;12.68;;;7.95;;
12445;SDS011;6287;50.984;7.022;2023-04-21T10:29:57;13.00;;;7.97;;
12445;SDS011;6287;50.984;7.022;2023-04-21T10:32:38;13.68;;;8.85;;
12445;SDS011;6287;50.984;7.022;2023-04-21T10:35:10;11.15;;;8.82;;
12445;SDS011;6287;50.984;7.022;2023-04-21T10:37:50;12.95;;;7.68;;
12445;SDS011;6287;50.984;7.022;2023-04-21T10:40:52;14.07;;;8.43;;
12445;SDS011;6287;50.984;7.022;2023-04-21T10:43:40;10.20;;;7.05;;
12445;SDS011;6287;50.984;7.022;2023-04-21T10:49:08;10.07;;;6.88;;
12445;SDS011;6287;50.984;7.022;2023-04-21T10:54:23;11.52;;;7.53;;
12445;SDS011;6287;50.984;7.022;2023-04-21T10:56:50;8.55;;;5.93;;
12445;SDS011;6287;50.984;7.022;2023-04-21T10:59:21;9.98;;;6.75;;
12445;SDS011;6287;50.984;7.022;2023-04-21T11:01:51;12.85;;;7.53;;
12445;SDS011;6287;50.984;7.022;2023-04-21T11:04:17;8.43;;;6.50;;
12445;SDS011;6287;50.984;7.022;2023-04-21T11:07:19;8.02;;;6.03;;
12445;SDS011;6287;50.984;7.022;2023-04-21T11:09:44;8.50;;;6.40;;
12445;SDS011;6287;50.984;7.022;2023-04-21T11:12:12;9.98;;;5.82;;
12445;SDS011;6287;50.984;7.022;2023-04-21T11:14:44;8.40;;;5.55;;
12445;SDS011;6287;50.984;7.022;2023-04-21T11:17:18;8.93;;;5.53;;
12445;SDS011;6287;50.984;7.022;2023-04-21T11:19:49;7.70;;;5.57;;
12445;SDS011;6287;50.984;7.022;2023-04-21T11:22:16;5.47;;;4.90;;
12445;SDS011;6287;50.984;7.022;2023-04-21T11:24:49;6.82;;;5.15;;
12445;SDS011;6287;50.984;7.022;2023-04-21T11:27:20;6.13;;;4.53;;
12445;SDS011;6287;50.984;7.022;2023-04-21T11:29:49;5.70;;;4.57;;
12445;SDS011;6287;50.984;7.022;2023-04-21T11:32:15;7.35;;;5.03;;
12445;SDS011;6287;50.984;7.022;2023-04-21T11:34:47;7.60;;;4.88;;
12445;SDS011;6287;50.984;7.022;2023-04-21T11:37:19;7.00;;;4.70;;
12445;SDS011;6287;50.984;7.022;2023-04-21T11:39:55;5.25;;;4.30;;
12445;SDS011;6287;50.984;7.022;2023-04-21T11:42:29;6.28;;;4.68;;
12445;SDS011;6287;50.984;7.022;2023-04-21T11:44:55;5.35;;;3.88;;
12445;SDS011;6287;50.984;7.022;2023-04-21T11:47:28;5.97;;;4.32;;
12445;SDS011;6287;50.984;7.022;2023-04-21T11:49:55;5.55;;;4.55;;
12445;SDS011;6287;50.984;7.022;2023-04-21T11:52:25;5.00;;;4.07;;
12445;SDS011;6287;50.984;7.022;2023-04-21T11:55:09;5.63;;;4.32;;
12445;SDS011;6287;50.984;7.022;2023-04-21T11:57:43;5.25;;;4.18;;
12445;SDS011;6287;50.984;7.022;2023-04-21T12:00:14;4.97;;;3.97;;
12445;SDS011;6287;50.984;7.022;2023-04-21T12:02:42;5.55;;;3.88;;
12445;SDS011;6287;50.984;7.022;2023-04-21T12:05:11;6.30;;;4.47;;
12445;SDS011;6287;50.984;7.022;2023-04-21T12:07:39;5.63;;;4.28;;
12445;SDS011;6287;50.984;7.022;2023-04-21T12:10:11;6.78;;;4.78;;
12445;SDS011;6287;50.984;7.022;2023-04-21T12:12:45;6.18;;;4.65;;
12445;SDS011;6287;50.984;7.022;2023-04-21T12:15:16;6.78;;;5.20;;
12445;SDS011;6287;50.984;7.022;2023-04-21T12:17:51;7.07;;;5.60;;
12445;SDS011;6287;50.984;7.022;2023-04-21T12:20:20;7.05;;;5.05;;
12445;SDS011;6287;50.984;7.022;2023-04-21T12:22:50;8.52;;;6.00;;
12445;SDS011;6287;50.984;7.022;2023-04-21T12:25:17;6.03;;;5.43;;
12445;SDS011;6287;50.984;7.022;2023-04-21T12:27:48;7.97;;;5.18;;
12445;SDS011;6287;50.984;7.022;2023-04-21T12:30:21;6.63;;;5.28;;
12445;SDS011;6287;50.984;7.022;2023-04-21T12:32:47;7.72;;;4.75;;
12445;SDS011;6287;50.984;7.022;2023-04-21T12:35:13;6.05;;;4.82;;
12445;SDS011;6287;50.984;7.022;2023-04-21T12:37:39;7.30;;;5.88;;
12445;SDS011;6287;50.984;7.022;2023-04-21T12:40:07;8.82;;;6.03;;
12445;SDS011;6287;50.984;7.022;2023-04-21T12:42:33;7.18;;;5.25;;
12445;SDS011;6287;50.984;7.022;2023-04-21T12:44:58;7.25;;;4.93;;
12445;SDS011;6287;50.984;7.022;2023-04-21T12:47:26;6.07;;;4.90;;
12445;SDS011;6287;50.984;7.022;2023-04-21T12:49:54;6.85;;;5.15;;
12445;SDS011;6287;50.984;7.022;2023-04-21T12:52:20;5.78;;;4.65;;
12445;SDS011;6287;50.984;7.022;2023-04-21T12:54:50;6.30;;;4.90;;
12445;SDS011;6287;50.984;7.022;2023-04-21T12:57:19;5.80;;;4.78;;
12445;SDS011;6287;50.984;7.022;2023-04-21T12:59:47;5.75;;;4.38;;
12445;SDS011;6287;50.984;7.022;2023-04-21T13:02:13;8.57;;;4.63;;
12445;SDS011;6287;50.984;7.022;2023-04-21T13:04:38;6.05;;;4.28;;
12445;SDS011;6287;50.984;7.022;2023-04-21T13:07:07;4.38;;;3.88;;
12445;SDS011;6287;50.984;7.022;2023-04-21T13:09:32;4.63;;;3.83;;
12445;SDS011;6287;50.984;7.022;2023-04-21T13:12:00;5.53;;;4.80;;
12445;SDS011;6287;50.984;7.022;2023-04-21T13:14:26;5.35;;;4.70;;
12445;SDS011;6287;50.984;7.022;2023-04-21T13:16:56;4.85;;;4.35;;
12445;SDS011;6287;50.984;7.022;2023-04-21T13:19:24;5.25;;;4.30;;
12445;SDS011;6287;50.984;7.022;2023-04-21T13:21:53;5.90;;;4.80;;
12445;SDS011;6287;50.984;7.022;2023-04-21T13:24:18;5.75;;;5.07;;
12445;SDS011;6287;50.984;7.022;2023-04-21T13:26:47;7.43;;;4.65;;
12445;SDS011;6287;50.984;7.022;2023-04-21T13:29:12;5.50;;;4.45;;
12445;SDS011;6287;50.984;7.022;2023-04-21T13:31:43;6.38;;;4.32;;
12445;SDS011;6287;50.984;7.022;2023-04-21T13:34:08;5.72;;;4.50;;
12445;SDS011;6287;50.984;7.022;2023-04-21T13:36:34;5.93;;;4.30;;
12445;SDS011;6287;50.984;7.022;2023-04-21T13:39:07;5.18;;;4.53;;
12445;SDS011;6287;50.984;7.022;2023-04-21T13:41:36;5.50;;;4.60;;
12445;SDS011;6287;50.984;7.022;2023-04-21T13:44:03;5.07;;;4.57;;
12445;SDS011;6287;50.984;7.022;2023-04-21T13:46:29;4.85;;;4.18;;
12445;SDS011;6287;50.984;7.022;2023-04-21T13:48:57;6.60;;;4.40;;
12445;SDS011;6287;50.984;7.022;2023-04-21T13:51:26;5.50;;;4.55;;
12445;SDS011;6287;50.984;7.022;2023-04-21T13:53:51;6.38;;;4.57;;
12445;SDS011;6287;50.984;7.022;2023-04-21T13:56:21;4.82;;;4.32;;
12445;SDS011;6287;50.984;7.022;2023-04-21T13:58:47;5.10;;;4.57;;
12445;SDS011;6287;50.984;7.022;2023-04-21T14:01:15;5.75;;;4.13;;
12445;SDS011;6287;50.984;7.022;2023-04-21T14:03:43;4.45;;;3.90;;
12445;SDS011;6287;50.984;7.022;2023-04-21T14:06:11;5.28;;;4.40;;
12445;SDS011;6287;50.984;7.022;2023-04-21T14:08:39;4.18;;;3.78;;
12445;SDS011;6287;50.984;7.022;2023-04-21T14:11:06;4.30;;;3.90;;
12445;SDS011;6287;50.984;7.022;2023-04-21T14:13:32;4.45;;;4.05;;
12445;SDS011;6287;50.984;7.022;2023-04-21T14:16:00;5.22;;;3.92;;
12445;SDS011;6287;50.984;7.022;2023-04-21T14:18:25;5.82;;;3.88;;
12445;SDS011;6287;50.984;7.022;2023-04-21T14:20:51;4.38;;;4.00;;
12445;SDS011;6287;50.984;7.022;2023-04-21T14:23:18;4.35;;;3.95;;
12445;SDS011;6287;50.984;7.022;2023-04-21T14:25:47;3.72;;;3.33;;
12445;SDS011;6287;50.984;7.022;2023-04-21T14:28:14;3.88;;;3.47;;
12445;SDS011;6287;50.984;7.022;2023-04-21T14:30:40;3.55;;;3.25;;
12445;SDS011;6287;50.984;7.022;2023-04-21T14:33:08;3.63;;;3.33;;
12445;SDS011;6287;50.984;7.022;2023-04-21T14:35:38;3.47;;;3.17;;
12445;SDS011;6287;50.984;7.022;2023-04-21T14:38:05;4.45;;;3.65;;
12445;SDS011;6287;50.984;7.022;2023-04-21T14:40:32;3.28;;;2.97;;
12445;SDS011;6287;50.984;7.022;2023-04-21T14:42:57;3.60;;;3.20;;
12445;SDS011;6287;50.984;7.022;2023-04-21T14:45:27;3.50;;;3.30;;
12445;SDS011;6287;50.984;7.022;2023-04-21T14:47:55;3.42;;;3.05;;
12445;SDS011;6287;50.984;7.022;2023-04-21T14:50:21;3.47;;;3.17;;
12445;SDS011;6287;50.984;7.022;2023-04-21T14:52:49;3.20;;;2.90;;
12445;SDS011;6287;50.984;7.022;2023-04-21T14:55:17;4.20;;;3.30;;
12445;SDS011;6287;50.984;7.022;2023-04-21T14:57:48;3.50;;;3.10;;
12445;SDS011;6287;50.984;7.022;2023-04-21T15:00:18;3.03;;;2.72;;